createdAt,value
2023-04-27T00:01:13.248Z,4.40
2023-04-27T00:03:40.313Z,3.90
2023-04-27T00:06:08.377Z,4.50
2023-04-27T00:08:35.477Z,4.67
2023-04-27T00:11:02.213Z,4.47
2023-04-27T00:13:28.995Z,6.47
2023-04-27T00:15:55.738Z,4.87
2023-04-27T00:18:22.462Z,4.03
2023-04-27T00:20:49.764Z,5.43
2023-04-27T00:23:16.475Z,4.03
2023-04-27T00:25:43.149Z,4.33
2023-04-27T00:28:09.779Z,4.90
2023-04-27T00:30:36.457Z,5.60
2023-04-27T00:33:03.208Z,4.87
2023-04-27T00:35:29.998Z,6.40
2023-04-27T00:37:58.280Z,4.17
2023-04-27T00:40:24.963Z,5.27
2023-04-27T00:42:52.725Z,5.93
2023-04-27T00:45:19.415Z,4.63
2023-04-27T00:47:46.320Z,5.13
2023-04-27T00:50:12.993Z,5.23
2023-04-27T00:52:39.956Z,5.50
2023-04-27T00:55:07.265Z,4.33
2023-04-27T00:57:34.575Z,4.10
2023-04-27T01:00:02.247Z,4.80
2023-04-27T01:02:30.208Z,5.03
2023-04-27T01:04:57.261Z,4.70
2023-04-27T01:07:27.287Z,4.53
2023-04-27T01:09:54.112Z,5.40
2023-04-27T01:12:21.111Z,4.20
2023-04-27T01:14:48.809Z,5.03
2023-04-27T01:17:15.442Z,5.13
2023-04-27T01:19:42.371Z,4.97
2023-04-27T01:22:10.407Z,4.30
2023-04-27T01:24:38.077Z,4.70
2023-04-27T01:27:05.601Z,4.73
2023-04-27T01:29:32.376Z,5.40
2023-04-27T01:31:59.201Z,4.70
2023-04-27T01:34:26.063Z,4.50
2023-04-27T01:36:52.751Z,4.90
2023-04-27T01:39:21.184Z,5.63
2023-04-27T01:41:47.843Z,5.67
2023-04-27T01:44:14.546Z,5.07
2023-04-27T01:46:41.512Z,4.90
2023-04-27T01:49:08.486Z,4.77
2023-04-27T01:51:35.167Z,4.73
2023-04-27T01:54:01.776Z,4.80
2023-04-27T01:56:28.422Z,5.90
2023-04-27T01:58:55.841Z,5.60
2023-04-27T02:01:23.003Z,4.67
2023-04-27T02:03:50.048Z,6.53
2023-04-27T02:06:16.812Z,5.77
2023-04-27T02:08:43.492Z,5.83
2023-04-27T02:11:10.448Z,5.20
2023-04-27T02:13:37.121Z,6.33
2023-04-27T02:16:05.346Z,5.77
2023-04-27T02:18:32.781Z,7.00
2023-04-27T02:20:59.469Z,5.00
2023-04-27T02:23:26.182Z,5.00
2023-04-27T02:25:52.870Z,5.40
2023-04-27T02:28:19.520Z,4.50
2023-04-27T02:30:46.544Z,4.83
2023-04-27T02:33:13.195Z,4.90
2023-04-27T02:35:39.848Z,4.33
2023-04-27T02:38:06.719Z,4.57
2023-04-27T02:40:37.171Z,4.80
2023-04-27T02:43:06.246Z,5.43
2023-04-27T02:45:37.256Z,4.80
2023-04-27T02:48:05.970Z,4.77
2023-04-27T02:50:35.140Z,5.47
2023-04-27T02:53:02.867Z,5.20
2023-04-27T02:55:29.897Z,5.63
2023-04-27T02:57:56.595Z,4.83
2023-04-27T03:00:23.264Z,5.60
2023-04-27T03:02:50.098Z,4.80
2023-04-27T03:05:16.996Z,6.03
2023-04-27T03:07:43.787Z,6.40
2023-04-27T03:10:10.729Z,5.73
2023-04-27T03:12:37.350Z,5.93
2023-04-27T03:15:04.375Z,6.90
2023-04-27T03:17:31.332Z,5.13
2023-04-27T03:19:58.111Z,5.77
2023-04-27T03:22:24.995Z,6.57
2023-04-27T03:24:51.683Z,6.43
2023-04-27T03:27:18.340Z,4.87
2023-04-27T03:29:44.983Z,5.53
2023-04-27T03:32:11.682Z,4.73
2023-04-27T03:34:38.450Z,5.57
2023-04-27T03:37:06.395Z,4.97
2023-04-27T03:39:36.844Z,4.70
2023-04-27T03:42:03.870Z,5.63
2023-04-27T03:44:34.186Z,5.63
2023-04-27T03:47:01.860Z,5.17
2023-04-27T03:49:28.979Z,5.33
2023-04-27T03:51:56.420Z,6.50
2023-04-27T03:54:23.079Z,5.83
2023-04-27T03:56:49.925Z,6.07
2023-04-27T03:59:16.876Z,6.10
2023-04-27T04:01:49.076Z,6.17
2023-04-27T04:04:16.102Z,7.97
2023-04-27T04:06:42.979Z,7.60
2023-04-27T04:09:12.705Z,8.37
2023-04-27T04:11:40.171Z,6.23
2023-04-27T04:14:09.055Z,6.17
2023-04-27T04:16:35.696Z,8.53
2023-04-27T04:19:02.391Z,7.20
2023-04-27T04:21:29.175Z,6.57
2023-04-27T04:23:56.426Z,8.00
2023-04-27T04:26:23.647Z,7.33
2023-04-27T04:28:50.432Z,6.03
2023-04-27T04:31:18.306Z,6.30
2023-04-27T04:33:45.041Z,8.17
2023-04-27T04:36:11.779Z,6.67
2023-04-27T04:38:38.619Z,7.33
2023-04-27T04:41:05.376Z,6.03
2023-04-27T04:43:33.437Z,7.67
2023-04-27T04:46:03.658Z,6.67
2023-04-27T04:48:30.433Z,5.87
2023-04-27T04:50:57.416Z,4.90
2023-04-27T04:53:24.152Z,6.47
2023-04-27T04:55:50.885Z,5.23
2023-04-27T04:58:17.542Z,6.77
2023-04-27T05:00:44.406Z,6.97
2023-04-27T05:03:11.209Z,4.73
2023-04-27T05:05:38.006Z,4.67
2023-04-27T05:08:04.800Z,7.40
2023-04-27T05:10:31.473Z,5.97
2023-04-27T05:12:58.131Z,5.77
2023-04-27T05:15:24.767Z,6.77
2023-04-27T05:17:51.483Z,5.73
2023-04-27T05:20:18.226Z,4.77
2023-04-27T05:22:44.850Z,8.60
2023-04-27T05:25:11.717Z,6.60
2023-04-27T05:27:38.347Z,5.50
2023-04-27T05:30:05.369Z,4.63
2023-04-27T05:32:34.238Z,4.17
2023-04-27T05:35:01.006Z,4.93
2023-04-27T05:37:27.647Z,4.33
2023-04-27T05:39:54.220Z,4.77
2023-04-27T05:42:20.819Z,5.03
2023-04-27T05:44:47.602Z,5.27
2023-04-27T05:47:14.228Z,4.83
2023-04-27T05:49:40.884Z,5.97
2023-04-27T05:52:07.565Z,6.33
2023-04-27T05:54:34.232Z,6.73
2023-04-27T05:57:01.067Z,5.57
2023-04-27T05:59:29.400Z,7.57
2023-04-27T06:01:57.066Z,5.70
2023-04-27T06:04:23.996Z,5.23
2023-04-27T06:06:50.938Z,4.90
2023-04-27T06:09:17.593Z,4.73
2023-04-27T06:11:44.937Z,4.57
2023-04-27T06:14:11.582Z,5.10
2023-04-27T06:16:38.343Z,4.83
2023-04-27T06:19:04.992Z,3.80
2023-04-27T06:21:33.862Z,4.90
2023-04-27T06:24:01.151Z,8.13
2023-04-27T06:26:28.381Z,5.67
2023-04-27T06:28:56.212Z,4.53
2023-04-27T06:31:22.991Z,5.10
2023-04-27T06:33:49.730Z,5.53
2023-04-27T06:36:17.217Z,5.87
2023-04-27T06:38:43.912Z,5.87
2023-04-27T06:41:11.019Z,6.13
2023-04-27T06:43:37.945Z,3.90
2023-04-27T06:46:06.416Z,4.33
2023-04-27T06:48:33.094Z,3.77
2023-04-27T06:50:59.788Z,4.33
2023-04-27T06:53:26.995Z,4.57
2023-04-27T06:55:53.744Z,4.27
2023-04-27T06:58:20.484Z,3.97
2023-04-27T07:00:47.154Z,3.80
2023-04-27T07:03:14.755Z,4.73
2023-04-27T07:05:41.582Z,4.37
2023-04-27T07:08:09.132Z,4.63
2023-04-27T07:10:36.143Z,3.40
2023-04-27T07:13:02.808Z,5.10
2023-04-27T07:15:31.144Z,7.63
2023-04-27T07:17:57.836Z,5.83
2023-04-27T07:20:24.548Z,4.00
2023-04-27T07:22:51.211Z,4.70
2023-04-27T07:25:17.945Z,3.73
2023-04-27T07:27:45.348Z,4.40
2023-04-27T07:30:13.925Z,5.20
2023-04-27T07:32:41.986Z,4.23
2023-04-27T07:35:12.062Z,5.83
2023-04-27T07:37:38.783Z,4.60
2023-04-27T07:40:16.941Z,6.17
2023-04-27T07:42:46.480Z,3.93
2023-04-27T07:45:14.138Z,3.67
2023-04-27T07:47:40.864Z,4.63
2023-04-27T07:50:08.424Z,4.73
2023-04-27T07:52:35.104Z,3.73
2023-04-27T07:55:02.032Z,5.17
2023-04-27T07:57:28.701Z,3.00
2023-04-27T07:59:55.599Z,5.47
2023-04-27T08:02:22.340Z,3.63
2023-04-27T08:04:50.171Z,3.57
2023-04-27T08:07:17.820Z,3.27
2023-04-27T08:09:44.694Z,3.87
2023-04-27T08:12:11.295Z,2.93
2023-04-27T08:14:38.070Z,3.37
2023-04-27T08:17:04.810Z,2.73
2023-04-27T08:19:31.501Z,5.50
2023-04-27T08:21:58.141Z,4.40
2023-04-27T08:24:24.847Z,4.10
2023-04-27T08:26:51.552Z,4.70
2023-04-27T08:29:27.187Z,2.80
2023-04-27T08:31:57.982Z,3.87
2023-04-27T08:34:24.681Z,2.97
2023-04-27T08:36:51.616Z,4.00
2023-04-27T08:39:18.556Z,3.30
2023-04-27T08:41:45.588Z,4.77
2023-04-27T08:44:12.431Z,3.57
2023-04-27T08:46:39.718Z,4.47
2023-04-27T08:49:07.899Z,4.17
2023-04-27T08:51:35.454Z,3.37
2023-04-27T08:54:02.434Z,2.77
2023-04-27T08:56:30.166Z,3.13
2023-04-27T08:58:58.646Z,5.37
2023-04-27T09:01:27.423Z,5.00
2023-04-27T09:03:59.072Z,3.90
2023-04-27T09:06:33.099Z,5.40
2023-04-27T09:09:00.962Z,4.53
2023-04-27T09:11:31.295Z,5.70
2023-04-27T09:13:59.836Z,4.93
2023-04-27T09:16:29.232Z,3.43
2023-04-27T09:18:57.368Z,6.57
2023-04-27T09:21:24.536Z,4.00
2023-04-27T09:23:51.813Z,3.40
2023-04-27T09:26:23.659Z,4.13
2023-04-27T09:28:52.139Z,4.40
2023-04-27T09:31:19.249Z,5.07
2023-04-27T09:33:47.523Z,6.83
2023-04-27T09:36:14.454Z,4.87
2023-04-27T09:38:41.536Z,4.07
2023-04-27T09:41:08.252Z,4.10
2023-04-27T09:43:35.170Z,4.90
2023-04-27T09:46:04.561Z,5.03
2023-04-27T09:48:31.273Z,3.83
2023-04-27T09:50:57.901Z,7.47
2023-04-27T09:53:45.568Z,3.80
2023-04-27T09:56:31.017Z,3.73
2023-04-27T09:59:09.976Z,3.97
2023-04-27T10:01:50.805Z,4.93
2023-04-27T10:04:39.454Z,4.27
2023-04-27T10:07:12.797Z,5.07
2023-04-27T10:09:51.733Z,3.73
2023-04-27T10:12:18.467Z,3.90
2023-04-27T10:14:48.863Z,5.90
2023-04-27T10:17:16.123Z,6.33
2023-04-27T10:19:57.362Z,4.37
2023-04-27T10:22:26.210Z,3.03
2023-04-27T10:24:52.832Z,4.67
2023-04-27T10:27:22.554Z,6.50
2023-04-27T10:29:49.838Z,5.23
2023-04-27T10:32:25.096Z,6.93
2023-04-27T10:35:02.270Z,4.63
2023-04-27T10:37:39.702Z,5.40
2023-04-27T10:40:08.631Z,3.60
2023-04-27T10:42:36.308Z,5.10
2023-04-27T10:45:03.249Z,4.53
2023-04-27T10:47:38.208Z,3.77
2023-04-27T10:50:06.098Z,6.17
2023-04-27T10:52:33.082Z,5.27
2023-04-27T10:55:12.732Z,4.40
2023-04-27T10:58:06.050Z,3.20
2023-04-27T11:00:39.583Z,4.10
2023-04-27T11:03:25.348Z,5.17
2023-04-27T11:06:05.655Z,5.07
2023-04-27T11:08:36.819Z,5.13
2023-04-27T11:11:05.103Z,4.43
2023-04-27T11:13:33.535Z,4.47
2023-04-27T11:16:00.692Z,5.37
2023-04-27T11:18:31.180Z,4.23
2023-04-27T11:21:09.426Z,5.13
2023-04-27T11:23:39.801Z,6.27
2023-04-27T11:26:15.215Z,4.10
2023-04-27T11:28:43.311Z,5.00
2023-04-27T11:31:10.183Z,4.47
2023-04-27T11:33:37.110Z,4.43
2023-04-27T11:36:03.935Z,3.83
2023-04-27T11:38:34.347Z,5.33
2023-04-27T11:41:05.836Z,4.87
2023-04-27T11:43:33.435Z,3.63
2023-04-27T11:46:10.545Z,5.40
2023-04-27T11:48:38.370Z,4.37
2023-04-27T11:51:06.059Z,6.33
2023-04-27T11:53:34.926Z,4.63
2023-04-27T11:56:05.163Z,4.07
2023-04-27T11:58:36.329Z,3.93
2023-04-27T12:01:07.417Z,3.47
2023-04-27T12:03:34.741Z,4.33
2023-04-27T12:08:31.750Z,3.63
2023-04-27T12:10:58.495Z,5.53
2023-04-27T12:13:25.168Z,5.27
2023-04-27T12:15:52.487Z,3.07
2023-04-27T12:18:19.131Z,4.13
2023-04-27T12:20:46.500Z,5.67
2023-04-27T12:23:13.138Z,4.83
2023-04-27T12:25:41.224Z,5.00
2023-04-27T12:28:08.104Z,3.83
2023-04-27T12:30:35.070Z,3.03
2023-04-27T12:33:02.543Z,4.37
2023-04-27T12:35:32.164Z,4.07
2023-04-27T12:37:59.013Z,4.00
2023-04-27T12:40:25.758Z,4.43
2023-04-27T12:42:52.416Z,4.17
2023-04-27T12:45:19.057Z,4.23
2023-04-27T12:47:58.645Z,4.53
2023-04-27T12:50:29.055Z,5.10
2023-04-27T12:52:55.687Z,4.00
2023-04-27T12:55:32.201Z,3.07
2023-04-27T12:58:00.230Z,4.93
2023-04-27T13:00:27.036Z,4.63
2023-04-27T13:02:53.986Z,4.40
2023-04-27T13:05:22.157Z,5.87
2023-04-27T13:07:48.973Z,3.67
2023-04-27T13:10:15.992Z,4.73
2023-04-27T13:12:42.836Z,6.30
2023-04-27T13:15:10.153Z,3.93
2023-04-27T13:17:37.189Z,5.77
2023-04-27T13:20:04.073Z,5.13
2023-04-27T13:22:30.784Z,4.43
2023-04-27T13:24:58.130Z,3.50
2023-04-27T13:27:28.329Z,5.60
2023-04-27T13:29:55.018Z,5.70
2023-04-27T13:32:22.336Z,5.60
2023-04-27T13:34:49.389Z,4.80
2023-04-27T13:37:16.618Z,3.90
2023-04-27T13:39:43.351Z,4.80
2023-04-27T13:42:10.155Z,4.40
2023-04-27T13:44:36.750Z,5.57
2023-04-27T13:47:03.514Z,3.13
2023-04-27T13:49:30.304Z,5.93
2023-04-27T13:51:56.941Z,3.60
2023-04-27T13:54:23.703Z,3.87
2023-04-27T13:56:50.455Z,5.43
2023-04-27T13:59:17.250Z,5.20
2023-04-27T14:01:44.032Z,3.43
2023-04-27T14:04:10.851Z,4.63
2023-04-27T14:06:37.720Z,3.60
2023-04-27T14:09:04.927Z,4.07
2023-04-27T14:11:37.197Z,5.60
2023-04-27T14:14:08.986Z,4.47
2023-04-27T14:16:35.806Z,3.77
2023-04-27T14:19:02.636Z,3.60
2023-04-27T14:21:29.348Z,4.53
2023-04-27T14:23:56.239Z,6.00
2023-04-27T14:26:22.959Z,5.77
2023-04-27T14:28:49.598Z,6.23
2023-04-27T14:31:16.251Z,4.20
2023-04-27T14:33:42.954Z,5.43
2023-04-27T14:36:09.713Z,7.10
2023-04-27T14:38:36.386Z,4.00
2023-04-27T14:41:05.716Z,3.47
2023-04-27T14:43:32.362Z,3.87
2023-04-27T14:46:05.134Z,4.43
2023-04-27T14:48:46.504Z,4.20
2023-04-27T14:51:16.728Z,4.50
2023-04-27T14:53:44.059Z,7.23
2023-04-27T14:56:11.320Z,5.13
2023-04-27T14:58:37.983Z,4.83
2023-04-27T15:01:04.681Z,4.80
2023-04-27T15:03:34.591Z,6.37
2023-04-27T15:06:01.957Z,6.63
2023-04-27T15:08:30.158Z,4.40
2023-04-27T15:10:59.868Z,5.37
2023-04-27T15:13:27.457Z,5.13
2023-04-27T15:15:58.339Z,5.17
2023-04-27T15:18:25.635Z,4.87
2023-04-27T15:20:56.581Z,6.10
2023-04-27T15:23:24.364Z,4.30
2023-04-27T15:25:53.856Z,6.67
2023-04-27T15:28:20.516Z,6.10
2023-04-27T15:30:47.424Z,5.20
2023-04-27T15:33:15.150Z,4.20
2023-04-27T15:35:42.109Z,5.60
2023-04-27T15:38:10.611Z,4.13
2023-04-27T15:40:37.235Z,4.67
2023-04-27T15:43:04.907Z,4.47
2023-04-27T15:45:31.953Z,5.07
2023-04-27T15:47:58.940Z,6.50
2023-04-27T15:50:26.002Z,4.80
2023-04-27T15:52:52.997Z,4.40
2023-04-27T15:55:19.728Z,5.13
2023-04-27T15:57:46.458Z,4.90
2023-04-27T16:00:16.325Z,5.47
2023-04-27T16:02:43.291Z,5.90
2023-04-27T16:05:10.329Z,5.37
2023-04-27T16:07:39.416Z,6.53
2023-04-27T16:10:07.260Z,5.87
2023-04-27T16:12:33.949Z,6.43
2023-04-27T16:15:01.026Z,5.20
2023-04-27T16:17:29.211Z,7.60
2023-04-27T16:19:55.976Z,5.33
2023-04-27T16:22:22.688Z,6.07
2023-04-27T16:24:49.532Z,4.60
2023-04-27T16:27:20.881Z,7.07
2023-04-27T16:29:47.634Z,8.23
2023-04-27T16:32:14.423Z,5.83
2023-04-27T16:34:41.609Z,5.53
2023-04-27T16:37:08.288Z,5.23
2023-04-27T16:39:35.000Z,6.70
2023-04-27T16:42:01.645Z,4.83
2023-04-27T16:44:28.377Z,6.87
2023-04-27T16:46:55.029Z,5.13
2023-04-27T16:49:21.633Z,6.83
2023-04-27T16:51:48.363Z,5.83
2023-04-27T16:54:16.556Z,6.07
2023-04-27T16:56:43.331Z,5.30
2023-04-27T16:59:12.490Z,5.47
2023-04-27T17:01:40.022Z,5.50
2023-04-27T17:04:06.831Z,5.90
2023-04-27T17:06:34.911Z,5.80
2023-04-27T17:09:01.726Z,6.23
2023-04-27T17:11:28.381Z,7.63
2023-04-27T17:13:55.092Z,6.90
2023-04-27T17:16:21.998Z,4.40
2023-04-27T17:18:49.095Z,7.50
2023-04-27T17:21:16.828Z,6.33
2023-04-27T17:23:46.511Z,5.47
2023-04-27T17:26:15.944Z,5.60
2023-04-27T17:28:42.655Z,5.70
2023-04-27T17:31:09.306Z,5.13
2023-04-27T17:33:36.076Z,5.70
2023-04-27T17:36:02.847Z,5.03
2023-04-27T17:38:29.492Z,4.10
2023-04-27T17:40:56.341Z,5.63
2023-04-27T17:43:22.976Z,5.80
2023-04-27T17:45:49.687Z,5.70
2023-04-27T17:48:16.437Z,4.40
2023-04-27T17:50:43.534Z,5.30
2023-04-27T17:53:10.178Z,4.37
2023-04-27T17:55:36.823Z,6.97
2023-04-27T17:58:06.222Z,3.60
2023-04-27T18:00:33.131Z,3.53
2023-04-27T18:02:59.872Z,4.53
2023-04-27T18:05:27.419Z,2.93
2023-04-27T18:07:54.112Z,2.80
2023-04-27T18:10:20.865Z,3.93
2023-04-27T18:12:47.586Z,3.57
2023-04-27T18:15:14.226Z,3.97
2023-04-27T18:17:41.141Z,3.23
2023-04-27T18:20:10.500Z,4.80
2023-04-27T18:22:39.630Z,5.80
2023-04-27T18:25:07.242Z,3.70
2023-04-27T18:27:33.928Z,5.13
2023-04-27T18:30:00.738Z,7.43
2023-04-27T18:32:27.474Z,5.10
2023-04-27T18:34:54.182Z,4.30
2023-04-27T18:37:20.921Z,5.97
2023-04-27T18:39:47.642Z,4.57
2023-04-27T18:42:14.257Z,6.87
2023-04-27T18:44:40.987Z,6.53
2023-04-27T18:47:07.946Z,8.97
2023-04-27T18:49:34.660Z,9.73
2023-04-27T18:52:01.400Z,10.70
2023-04-27T18:54:28.039Z,9.60
2023-04-27T18:56:54.768Z,9.13
2023-04-27T18:59:21.532Z,9.87
2023-04-27T19:01:48.262Z,9.30
2023-04-27T19:04:16.408Z,8.87
2023-04-27T19:06:43.225Z,8.77
2023-04-27T19:09:10.208Z,10.23
2023-04-27T19:11:36.946Z,7.53
2023-04-27T19:14:03.605Z,8.07
2023-04-27T19:16:30.350Z,9.37
2023-04-27T19:18:57.072Z,6.90
2023-04-27T19:21:23.739Z,8.23
2023-04-27T19:23:50.364Z,8.20
2023-04-27T19:26:17.044Z,6.93
2023-04-27T19:28:43.698Z,6.07
2023-04-27T19:31:10.530Z,8.00
2023-04-27T19:33:37.269Z,9.73
2023-04-27T19:36:04.360Z,6.97
2023-04-27T19:38:31.046Z,7.97
2023-04-27T19:40:57.784Z,11.73
2023-04-27T19:43:24.415Z,10.10
2023-04-27T19:45:51.384Z,10.13
2023-04-27T19:48:18.244Z,9.17
2023-04-27T19:50:45.016Z,9.33
2023-04-27T19:53:11.732Z,9.73
2023-04-27T19:55:39.216Z,12.03
2023-04-27T19:58:06.328Z,12.67
2023-04-27T20:00:33.392Z,10.10
2023-04-27T20:03:00.226Z,10.10
2023-04-27T20:05:27.219Z,9.37
2023-04-27T20:07:54.135Z,10.47
2023-04-27T20:10:21.472Z,9.73
2023-04-27T20:12:56.550Z,9.93
2023-04-27T20:15:24.494Z,10.13
2023-04-27T20:17:51.945Z,9.47
2023-04-27T20:20:19.293Z,7.87
2023-04-27T20:22:46.099Z,9.20
2023-04-27T20:25:14.857Z,7.50
2023-04-27T20:27:41.890Z,7.97
2023-04-27T20:30:09.101Z,6.23
2023-04-27T20:32:36.396Z,7.73
2023-04-27T20:35:04.804Z,6.77
2023-04-27T20:37:32.437Z,5.60
2023-04-27T20:39:59.504Z,8.47
2023-04-27T20:42:26.241Z,7.43
2023-04-27T20:44:54.873Z,5.50
2023-04-27T20:47:21.984Z,6.27
2023-04-27T20:49:48.945Z,6.57
2023-04-27T20:52:15.833Z,6.07
2023-04-27T20:54:42.518Z,7.77
2023-04-27T20:57:13.496Z,5.57
2023-04-27T20:59:41.126Z,6.60
2023-04-27T21:02:07.816Z,9.10
2023-04-27T21:04:34.642Z,9.00
2023-04-27T21:07:01.448Z,7.03
2023-04-27T21:09:28.233Z,7.10
2023-04-27T21:11:55.003Z,7.43
2023-04-27T21:14:21.760Z,7.93
2023-04-27T21:16:48.428Z,6.13
2023-04-27T21:19:16.575Z,6.43
2023-04-27T21:21:43.396Z,5.83
2023-04-27T21:24:10.244Z,5.37
2023-04-27T21:26:36.885Z,5.50
2023-04-27T21:29:05.547Z,6.23
2023-04-27T21:31:33.332Z,7.27
2023-04-27T21:34:00.196Z,6.07
2023-04-27T21:36:26.925Z,7.90
2023-04-27T21:38:53.667Z,7.23
2023-04-27T21:41:20.346Z,7.37
2023-04-27T21:43:47.016Z,8.47
2023-04-27T21:46:13.726Z,7.80
2023-04-27T21:48:40.404Z,7.47
2023-04-27T21:51:07.045Z,8.60
2023-04-27T21:53:33.668Z,10.97
2023-04-27T21:56:00.358Z,9.30
2023-04-27T21:58:28.689Z,11.10
2023-04-27T22:00:55.368Z,8.33
2023-04-27T22:03:22.759Z,6.57
2023-04-27T22:05:50.343Z,7.00
2023-04-27T22:08:18.387Z,6.50
2023-04-27T22:10:45.540Z,7.60
2023-04-27T22:13:18.365Z,7.27
2023-04-27T22:15:46.526Z,8.20
2023-04-27T22:18:17.329Z,6.40
2023-04-27T22:20:44.173Z,6.87
2023-04-27T22:23:12.102Z,6.07
2023-04-27T22:25:38.816Z,6.80
2023-04-27T22:28:05.454Z,6.63
2023-04-27T22:30:32.142Z,5.67
2023-04-27T22:32:58.962Z,5.53
2023-04-27T22:35:27.577Z,6.93
2023-04-27T22:37:59.324Z,6.63
2023-04-27T22:40:26.447Z,8.90
2023-04-27T22:42:54.109Z,5.80
2023-04-27T22:45:22.162Z,8.23
2023-04-27T22:47:49.606Z,6.87
2023-04-27T22:50:16.811Z,6.60
2023-04-27T22:52:43.587Z,7.70
2023-04-27T22:55:11.452Z,8.73
2023-04-27T22:57:38.935Z,6.63
2023-04-27T23:00:11.658Z,5.93
2023-04-27T23:02:39.762Z,8.43
2023-04-27T23:05:11.013Z,6.50
2023-04-27T23:07:38.515Z,9.03
2023-04-27T23:10:06.097Z,8.60
2023-04-27T23:12:33.282Z,8.07
2023-04-27T23:15:00.055Z,10.33
2023-04-27T23:17:32.794Z,8.13
2023-04-27T23:20:00.685Z,9.20
2023-04-27T23:22:27.929Z,8.90
2023-04-27T23:24:55.037Z,8.70
2023-04-27T23:27:22.714Z,8.97
2023-04-27T23:29:49.379Z,8.13
2023-04-27T23:32:16.054Z,8.20
2023-04-27T23:34:42.696Z,8.33
2023-04-27T23:37:09.348Z,7.43
2023-04-27T23:39:37.001Z,8.17
2023-04-27T23:42:03.837Z,9.00
2023-04-27T23:44:30.551Z,8.90
2023-04-27T23:46:57.530Z,8.80
2023-04-27T23:49:24.241Z,9.27
2023-04-27T23:51:52.476Z,11.20
2023-04-27T23:54:19.214Z,9.40
2023-04-27T23:56:47.309Z,10.47
2023-04-27T23:59:15.039Z,9.00
